Latest Coastal Weather Observations for Point Stuart

IDD60701

Issued at 7:31 am CST Friday 9 December 2016 (issued every 10 minutes, with the page automatically refreshed every 10 minutes)

About coastal observations | Map of coastal stations | Coastal observations for NT | Marine services | Other Formats
Station Details ID: 014254 Name: POINT STUART Lat: -12.24 Lon: 131.88 Height: 1.0 m
Data from the previous 72 hours. | See also: Recent months at Point Stuart
Date/Time
CST
Temp
°C
Wind Pressure Rain since
9am
mm
Weather Cloud Vis
km
Sea
Height
m
Swell
Dir  Spd
kts
Gust
kts
hPa Trend Height
m
Period
s
Dir
09/07:30am 30.5 NNE 5 7 1008.1 - 0.2 - - - - - - -
09/07:00am 29.7 NNE 4 6 1007.6 - 0.2 - - - - - - -
09/06:30am 28.9 NNE 6 8 1007.3 - 0.2 - - - - - - -
09/06:00am 28.5 NE 5 7 1006.9 - 0.2 - - - - - - -
09/05:30am 28.3 NNE 4 6 1006.6 - 0.2 - - - - - - -
09/05:00am 28.3 NNE 4 6 1006.4 - 0.2 - - - - - - -
09/04:30am 28.5 NNE 4 6 1006.1 - 0.2 - - - - - - -
09/04:00am 28.5 N 4 6 1006.2 - 0.2 - - - - - - -
09/03:30am 28.7 N 4 7 1006.2 - 0.2 - - - - - - -
09/03:00am 28.8 N 4 7 1006.2 - 0.2 - - - - - - -
09/02:30am 29.2 N 4 7 1006.4 - 0.2 - - - - - - -
09/02:00am 29.4 N 5 8 1006.5 - 0.2 - - - - - - -
09/01:30am 29.6 N 5 10 1006.6 - 0.2 - - - - - - -
09/01:00am 29.6 N 6 10 1006.9 - 0.2 - - - - - - -
09/12:30am 29.8 N 7 11 1007.0 - 0.2 - - - - - - -
09/12:00am 29.8 N 6 11 1007.1 - 0.2 - - - - - - -
 
Date/Time
CST
Temp
°C
Wind Pressure Rain since
9am
mm
Weather Cloud Vis
km
Sea
Height
m
Swell
Dir  Spd
kts
Gust
kts
hPa Trend Height
m
Period
s
Dir
08/11:30pm 29.8 N 6 10 1006.9 - 0.2 - - - - - - -
08/11:00pm 29.9 N 7 10 1006.9 - 0.2 - - - - - - -
08/10:30pm 30.0 N 6 10 1007.0 - 0.2 - - - - - - -
08/10:00pm 30.2 N 8 13 1006.7 - 0.2 - - - - - - -
08/09:30pm 30.2 N 7 14 1006.4 - 0.2 - - - - - - -
08/09:00pm 30.2 N 6 11 1006.0 - 0.2 - - - - - - -
08/08:30pm 30.5 N 7 14 1005.5 - 0.2 - - - - - - -
08/08:00pm 30.7 N 6 9 1004.9 - 0.2 - - - - - - -
08/07:30pm 30.3 NNW 4 6 1004.6 - 0.2 - - - - - - -
08/07:00pm 30.9 NNW 7 10 1004.4 - 0.2 - - - - - - -
08/06:30pm 32.1 NW 7 10 1004.2 - 0.2 - - - - - - -
08/06:00pm 33.0 NNW 7 11 1004.0 - 0.2 - - - - - - -
08/05:30pm 32.9 NNW 7 11 1003.9 - 0.2 - - - - - - -
08/05:00pm 33.9 NNW 8 11 1003.7 - 0.2 - - - - - - -
08/04:30pm 33.5 NNW 7 11 1003.7 - 0.2 - - - - - - -
08/04:00pm 33.9 NW 8 13 1003.7 - 0.2 - - - - - - -
08/03:30pm 33.8 NW 8 12 1003.9 - 0.2 - - - - - - -
08/03:00pm 33.0 NNW 6 11 1004.1 - 0.2 - - - - - - -
08/02:30pm 33.1 NNW 8 13 1004.6 - 0.2 - - - - - - -
08/02:00pm 32.9 NNW 7 11 1005.0 - 0.2 - - - - - - -
08/01:30pm 33.2 NNW 7 11 1005.4 - 0.2 - - - - - - -
08/01:00pm 32.9 NW 8 11 1005.8 - 0.2 - - - - - - -
08/12:30pm 32.8 NNW 6 10 1006.3 - 0.2 - - - - - - -
08/12:00pm 32.6 NNW 6 11 1006.7 - 0.2 - - - - - - -
08/11:30am 32.6 NW 8 12 1007.1 - 0.2 - - - - - - -
08/11:00am 32.8 NNW 9 15 1007.2 - 0.2 - - - - - - -
08/10:30am 32.4 NNW 6 10 1007.9 - 0.2 - - - - - - -
08/10:00am 31.1 NNW 6 8 1008.2 - 0.2 - - - - - - -
08/09:30am 31.3 NNE 5 7 1008.3 - 0.0 - - - - - - -
08/09:00am 30.6 NNE 3 6 1008.1 - 7.8 - - - - - - -
08/08:30am 31.1 NE 1 4 1008.0 - 7.8 - - - - - - -
08/08:00am 30.1 CALM 0 0 1007.9 - 7.8 - - - - - - -
08/07:30am 28.6 S 1 4 1007.8 - 7.8 - - - - - - -
08/07:00am 27.7 CALM 0 1 1007.7 - 7.8 - - - - - - -
08/06:30am 26.8 SSW 3 5 1007.5 - 7.8 - - - - - - -
08/06:00am 27.1 CALM 0 0 1007.1 - 7.8 - - - - - - -
08/05:30am 26.3 NNW 4 6 1007.0 - 7.8 - - - - - - -
08/05:00am 26.4 N 3 4 1006.7 - 7.8 - - - - - - -
08/04:30am 26.2 N 4 5 1006.4 - 7.8 - - - - - - -
08/04:00am 26.3 N 5 7 1006.3 - 7.8 - - - - - - -
08/03:30am 28.6 NE 2 6 1006.3 - 1.6 - - - - - - -
08/03:00am 29.1 NNW 5 7 1006.1 - 0.0 - - - - - - -
08/02:30am 29.2 NNW 5 6 1006.2 - 0.0 - - - - - - -
08/02:00am 29.7 NNW 6 10 1006.1 - 0.0 - - - - - - -
08/01:30am 29.4 NNW 7 10 1006.1 - 0.0 - - - - - - -
08/01:00am 29.7 NNW 6 9 1006.5 - 0.0 - - - - - - -
08/12:30am 29.7 NNW 5 8 1006.9 - 0.0 - - - - - - -
08/12:00am 29.6 NNW 5 8 1007.1 - 0.0 - - - - - - -
 
Date/Time
CST
Temp
°C
Wind Pressure Rain since
9am
mm
Weather Cloud Vis
km
Sea
Height
m
Swell
Dir  Spd
kts
Gust
kts
hPa Trend Height
m
Period
s
Dir
07/11:30pm 29.9 NNW 6 9 1007.4 - 0.0 - - - - - - -
07/11:00pm 30.0 N 5 9 1007.4 - 0.0 - - - - - - -
07/10:30pm 30.1 N 6 9 1007.3 - 0.0 - - - - - - -
07/10:00pm 30.1 NNW 5 7 1007.3 - 0.0 - - - - - - -
07/09:30pm 29.4 NW 7 9 1007.3 - 0.0 - - - - - - -
07/09:00pm 29.4 NW 7 9 1007.0 - 0.0 - - - - - - -
07/08:30pm 29.4 NW 6 8 1006.6 - 0.0 - - - - - - -
07/08:00pm 29.6 NW 6 8 1006.4 - 0.0 - - - - - - -
07/07:30pm 29.9 NW 6 8 1006.1 - 0.0 - - - - - - -
07/07:00pm 30.5 NW 6 8 1005.7 - 0.0 - - - - - - -
07/06:30pm 31.3 NW 6 8 1005.3 - 0.0 - - - - - - -
07/06:00pm 32.5 NW 6 8 1005.0 - 0.0 - - - - - - -
07/05:30pm 34.1 NNW 7 9 1004.9 - 0.0 - - - - - - -
07/05:00pm 33.5 NNW 6 8 1004.9 - 0.0 - - - - - - -
07/04:30pm 34.0 NNW 7 10 1004.8 - 0.0 - - - - - - -
07/04:00pm 33.2 N 6 11 1005.1 - 0.0 - - - - - - -
07/03:30pm 34.1 N 7 12 1005.3 - 0.0 - - - - - - -
07/03:00pm 34.2 N 7 10 1005.7 - 0.0 - - - - - - -
07/02:30pm 33.9 N 7 11 1005.9 - 0.0 - - - - - - -
07/02:00pm 33.8 N 7 12 1006.4 - 0.0 - - - - - - -
07/01:30pm 33.3 N 7 13 1006.7 - 0.0 - - - - - - -
07/01:00pm 33.0 N 8 11 1007.0 - 0.0 - - - - - - -
07/12:30pm 33.4 NNW 8 11 1007.5 - 0.0 - - - - - - -
07/12:00pm 33.4 N 7 10 1007.9 - 0.0 - - - - - - -
07/11:30am 32.1 N 5 9 1008.2 - 0.0 - - - - - - -
07/11:00am 32.3 NNW 7 11 1008.9 - 0.0 - - - - - - -
07/10:30am 31.0 NNW 7 11 1009.2 - 0.0 - - - - - - -
07/10:00am 31.8 NNW 6 9 1009.2 - 0.0 - - - - - - -
07/09:30am 30.9 W 2 4 1009.5 - 0.0 - - - - - - -
07/09:00am 30.0 NW 2 5 1009.9 - 0.4 - - - - - - -
07/08:30am 30.3 W 5 8 1010.2 - 0.4 - - - - - - -
07/08:00am 30.2 SSE 4 6 1010.2 - 0.4 - - - - - - -
07/07:30am 28.6 SSW 4 6 1010.1 - 0.4 - - - - - - -
07/07:00am 27.9 W 5 7 1009.5 - 0.4 - - - - - - -
07/06:30am 27.2 S 3 5 1009.4 - 0.4 - - - - - - -
07/06:00am 27.0 SE 1 4 1008.9 - 0.4 - - - - - - -
07/05:30am 27.1 SSE 3 4 1008.4 - 0.0 - - - - - - -
07/05:00am 27.3 SSE 2 4 1008.3 - 0.0 - - - - - - -
07/04:30am 26.8 S 4 5 1008.1 - 0.0 - - - - - - -
07/04:00am 26.8 S 4 5 1007.7 - 0.0 - - - - - - -
07/03:30am 27.0 S 5 6 1007.3 - 0.0 - - - - - - -
07/03:00am 26.9 S 5 5 1007.6 - 0.0 - - - - - - -
07/02:30am 27.5 SW 4 5 1007.4 - 0.0 - - - - - - -
07/02:00am 28.3 SW 5 8 1007.6 - 0.0 - - - - - - -
07/01:30am 29.1 NW 6 9 1008.0 - 0.0 - - - - - - -
07/01:00am 29.0 NW 5 7 1008.2 - 0.0 - - - - - - -
07/12:30am 28.8 NNW 4 6 1008.4 - 0.0 - - - - - - -
07/12:00am 29.2 NNW 5 9 1008.7 - 0.0 - - - - - - -
 
Date/Time
CST
Temp
°C
Wind Pressure Rain since
9am
mm
Weather Cloud Vis
km
Sea
Height
m
Swell
Dir  Spd
kts
Gust
kts
hPa Trend Height
m
Period
s
Dir
06/11:30pm 29.4 NNW 5 8 1008.9 - 0.0 - - - - - - -
06/11:00pm 29.5 NNW 5 8 1008.8 - 0.0 - - - - - - -
06/10:30pm 29.6 N 5 7 1009.0 - 0.0 - - - - - - -
06/10:00pm 29.6 N 6 9 1008.6 - 0.0 - - - - - - -
06/09:30pm 29.6 NNW 5 9 1008.3 - 0.0 - - - - - - -
06/09:00pm 29.6 N 6 9 1007.9 - 0.0 - - - - - - -
06/08:30pm 29.8 N 6 10 1007.5 - 0.0 - - - - - - -
06/08:00pm 30.0 N 5 9 1007.1 - 0.0 - - - - - - -
06/07:30pm 30.3 N 6 9 1006.8 - 0.0 - - - - - - -
06/07:00pm 30.5 N 6 9 1006.5 - 0.0 - - - - - - -
06/06:30pm 30.5 N 5 10 1006.3 - 0.0 - - - - - - -
06/06:00pm 30.7 N 7 11 1006.0 - 0.0 - - - - - - -
06/05:30pm 31.0 N 6 10 1005.8 - 0.0 - - - - - - -
06/05:00pm 32.3 N 8 14 1005.6 - 0.0 - - - - - - -
06/04:30pm 33.2 NNW 7 13 1005.6 - 0.0 - - - - - - -
06/04:00pm 32.9 N 7 11 1005.8 - 0.0 - - - - - - -
06/03:30pm 33.8 N 7 10 1006.0 - 0.0 - - - - - - -
06/03:00pm 34.0 NNW 6 9 1006.2 - 0.0 - - - - - - -
06/02:30pm 33.6 N 6 9 1006.5 - 0.0 - - - - - - -
06/02:00pm 33.5 N 6 11 1007.2 - 0.0 - - - - - - -
06/01:30pm 33.5 N 7 11 1007.8 - 0.0 - - - - - - -
06/01:00pm 33.4 N 7 12 1008.3 - 0.0 - - - - - - -
06/12:30pm 33.6 N 6 10 1008.8 - 0.0 - - - - - - -
06/12:00pm 33.4 NE 8 11 1009.3 - 0.0 - - - - - - -
06/11:30am 33.3 ENE 6 9 1009.6 - 0.0 - - - - - - -
06/11:00am 32.4 ENE 7 9 1010.0 - 0.0 - - - - - - -
06/10:30am 32.8 NE 7 11 1010.4 - 0.0 - - - - - - -
06/10:00am 32.8 NNE 4 7 1010.5 - 0.0 - - - - - - -
06/09:30am 31.9 ESE 3 7 1010.6 - 0.0 - - - - - - -
06/09:00am 31.3 ESE 6 9 1010.6 - 0.0 - - - - - - -
06/08:30am 30.5 E 5 7 1010.4 - 0.0 - - - - - - -
06/08:00am 29.4 ESE 4 6 1010.4 - 0.0 - - - - - - -

Other Formats:

Comma delimited format used in spreadsheet applications
http://www.bom.gov.au/fwo/IDD60701/IDD60701.94127.axf

JavaScript Object Notation format (JSON) in row-major order
http://www.bom.gov.au/fwo/IDD60701/IDD60701.94127.json